createdAt,value
2022-07-26T00:01:01.127Z,22.18
2022-07-26T00:03:41.392Z,22.40
2022-07-26T00:06:34.645Z,22.38
2022-07-26T00:09:22.816Z,22.35
2022-07-26T00:12:03.473Z,22.34
2022-07-26T00:18:23.777Z,22.33
2022-07-26T00:21:16.757Z,22.42
2022-07-26T00:24:37.934Z,22.42
2022-07-26T00:27:10.171Z,22.38
2022-07-26T00:29:42.685Z,22.43
2022-07-26T00:32:12.614Z,22.36
2022-07-26T00:34:48.033Z,22.30
2022-07-26T00:37:21.351Z,22.22
2022-07-26T00:39:55.716Z,22.09
2022-07-26T00:42:28.649Z,22.07
2022-07-26T00:45:13.353Z,22.00
2022-07-26T00:47:52.501Z,21.98
2022-07-26T00:53:34.435Z,21.84
2022-07-26T00:56:22.452Z,21.83
2022-07-26T00:59:19.335Z,21.81
2022-07-26T01:02:16.179Z,21.72
2022-07-26T01:05:12.896Z,21.73
2022-07-26T01:07:47.327Z,21.63
2022-07-26T01:10:21.860Z,21.65
2022-07-26T01:13:02.100Z,21.66
2022-07-26T01:18:46.077Z,21.55
2022-07-26T01:21:18.251Z,21.55
2022-07-26T01:23:48.097Z,21.55
2022-07-26T01:26:26.845Z,21.54
2022-07-26T01:29:11.320Z,21.50
2022-07-26T01:31:47.161Z,21.40
2022-07-26T01:34:27.127Z,21.24
2022-07-26T01:37:16.787Z,21.33
2022-07-26T01:42:51.579Z,21.25
2022-07-26T01:45:43.084Z,21.18
2022-07-26T01:48:17.875Z,21.11
2022-07-26T01:50:56.969Z,21.01
2022-07-26T01:53:31.844Z,20.85
2022-07-26T01:56:26.490Z,21.00
2022-07-26T01:59:24.029Z,20.93
2022-07-26T02:01:58.821Z,20.85
2022-07-26T02:04:58.618Z,20.78
2022-07-26T02:07:44.757Z,20.85
2022-07-26T02:11:03.616Z,20.78
2022-07-26T02:13:57.721Z,20.65
2022-07-26T02:16:27.755Z,20.63
2022-07-26T02:19:01.938Z,20.58
2022-07-26T02:21:50.743Z,20.52
2022-07-26T02:24:27.440Z,20.52
2022-07-26T02:27:19.234Z,20.44
2022-07-26T02:30:04.008Z,20.33
2022-07-26T02:32:53.713Z,20.48
2022-07-26T02:35:28.015Z,20.47
2022-07-26T02:38:02.087Z,20.50
2022-07-26T02:40:51.179Z,20.54
2022-07-26T02:43:42.052Z,20.50
2022-07-26T02:46:31.831Z,20.58
2022-07-26T02:49:13.597Z,20.53
2022-07-26T02:51:48.603Z,20.61
2022-07-26T02:57:45.522Z,20.72
2022-07-26T03:00:44.469Z,20.70
2022-07-26T03:03:15.204Z,20.75
2022-07-26T03:05:48.217Z,20.81
2022-07-26T03:08:43.626Z,20.79
2022-07-26T03:11:30.090Z,20.82
2022-07-26T03:13:58.382Z,20.89
2022-07-26T03:16:30.748Z,20.90
2022-07-26T03:19:31.292Z,20.88
2022-07-26T03:28:10.174Z,20.96
2022-07-26T03:30:46.606Z,20.90
2022-07-26T03:33:34.433Z,20.94
2022-07-26T03:36:35.545Z,20.95
2022-07-26T03:42:35.221Z,20.96
2022-07-26T03:45:29.079Z,20.99
2022-07-26T03:48:02.515Z,20.93
2022-07-26T03:50:46.017Z,21.03
2022-07-26T03:53:31.668Z,21.10
2022-07-26T03:56:25.789Z,21.03
2022-07-26T03:59:08.560Z,21.10
2022-07-26T04:01:45.218Z,21.08
2022-07-26T04:04:18.565Z,21.12
2022-07-26T04:07:05.439Z,21.04
2022-07-26T04:09:41.567Z,21.13
2022-07-26T04:12:21.338Z,21.16
2022-07-26T04:15:34.527Z,21.21
2022-07-26T04:18:05.123Z,21.23
2022-07-26T04:20:36.967Z,21.02
2022-07-26T04:23:05.513Z,21.22
2022-07-26T04:25:52.190Z,21.24
2022-07-26T04:28:43.760Z,21.22
2022-07-26T04:31:13.794Z,21.23
2022-07-26T04:33:48.598Z,21.24
2022-07-26T04:36:23.806Z,21.21
2022-07-26T04:39:01.485Z,21.11
2022-07-26T04:41:32.295Z,21.17
2022-07-26T04:44:05.805Z,21.16
2022-07-26T04:46:49.322Z,21.06
2022-07-26T04:49:41.740Z,21.05
2022-07-26T04:52:36.861Z,21.05
2022-07-26T04:55:14.452Z,21.10
2022-07-26T04:57:47.339Z,21.13
2022-07-26T05:01:09.149Z,21.18
2022-07-26T05:03:39.973Z,21.16
2022-07-26T05:06:16.428Z,21.14
2022-07-26T05:08:45.858Z,21.17
2022-07-26T05:11:16.671Z,21.13
2022-07-26T05:13:46.614Z,21.05
2022-07-26T05:19:35.761Z,21.20
2022-07-26T05:22:08.046Z,21.16
2022-07-26T05:24:39.364Z,21.16
2022-07-26T05:27:20.217Z,21.04
2022-07-26T05:32:39.622Z,21.21
2022-07-26T05:35:17.917Z,21.25
2022-07-26T05:37:47.607Z,21.29
2022-07-26T05:40:16.358Z,21.30
2022-07-26T05:42:47.651Z,21.32
2022-07-26T05:45:21.568Z,21.34
2022-07-26T05:47:52.188Z,21.38
2022-07-26T05:50:21.346Z,21.41
2022-07-26T05:52:54.542Z,21.42
2022-07-26T05:55:35.547Z,21.50
2022-07-26T05:58:19.918Z,21.52
2022-07-26T06:00:54.308Z,21.54
2022-07-26T06:04:00.766Z,21.58
2022-07-26T06:06:45.095Z,21.60
2022-07-26T06:09:14.666Z,21.63
2022-07-26T06:11:48.864Z,21.64
2022-07-26T06:14:19.603Z,21.80
2022-07-26T06:20:27.769Z,21.81
2022-07-26T06:22:59.937Z,21.84
2022-07-26T06:25:30.654Z,21.79
2022-07-26T06:28:03.651Z,21.81
2022-07-26T06:30:32.662Z,21.78
2022-07-26T06:33:25.039Z,21.83
2022-07-26T06:36:08.318Z,21.80
2022-07-26T06:42:03.019Z,21.89
2022-07-26T06:44:34.127Z,22.00
2022-07-26T06:47:24.562Z,22.13
2022-07-26T06:53:05.445Z,22.30
2022-07-26T06:55:37.321Z,22.43
2022-07-26T06:58:14.230Z,22.51
2022-07-26T07:00:47.231Z,22.62
2022-07-26T07:03:23.455Z,22.66
2022-07-26T07:06:19.310Z,22.60
2022-07-26T07:08:56.410Z,22.61
2022-07-26T07:14:26.765Z,22.63
2022-07-26T07:17:16.032Z,22.68
2022-07-26T07:20:02.037Z,22.77
2022-07-26T07:22:35.039Z,22.82
2022-07-26T07:25:06.350Z,22.92
2022-07-26T07:31:00.148Z,23.06
2022-07-26T07:33:36.735Z,23.06
2022-07-26T07:36:27.769Z,23.05
2022-07-26T07:39:34.905Z,22.94
2022-07-26T07:42:27.086Z,22.86
2022-07-26T07:45:14.688Z,22.89
2022-07-26T07:47:57.672Z,22.81
2022-07-26T07:50:37.348Z,22.97
2022-07-26T07:53:12.470Z,23.10
2022-07-26T07:56:10.954Z,23.19
2022-07-26T07:58:48.912Z,23.22
2022-07-26T08:02:06.194Z,23.18
2022-07-26T08:08:02.125Z,22.98
2022-07-26T08:14:33.343Z,22.91
2022-07-26T08:17:43.088Z,22.93
2022-07-26T08:20:37.694Z,22.92
2022-07-26T08:26:58.833Z,22.78
2022-07-26T08:29:30.754Z,22.69
2022-07-26T08:32:33.333Z,22.66
2022-07-26T08:35:55.898Z,22.90
2022-07-26T08:38:38.283Z,22.84
2022-07-26T08:51:02.874Z,23.25
2022-07-26T08:54:23.067Z,23.42
2022-07-26T08:57:59.474Z,23.65
2022-07-26T09:01:50.387Z,23.60
2022-07-26T09:04:58.481Z,23.64
2022-07-26T09:08:42.545Z,23.72
2022-07-26T09:11:32.393Z,23.78
2022-07-26T09:14:09.768Z,23.82
2022-07-26T09:17:22.210Z,23.94
2022-07-26T09:21:06.799Z,24.03
2022-07-26T09:23:58.623Z,24.14
2022-07-26T09:27:11.929Z,24.11
2022-07-26T09:33:33.289Z,24.35
2022-07-26T09:36:15.261Z,24.54
2022-07-26T09:39:12.419Z,24.73
2022-07-26T09:42:29.058Z,24.75
2022-07-26T09:45:26.459Z,24.99
2022-07-26T09:48:06.633Z,25.02
2022-07-26T09:50:54.488Z,24.89
2022-07-26T09:53:40.008Z,24.72
2022-07-26T09:57:02.070Z,24.87
2022-07-26T09:59:34.904Z,25.02
2022-07-26T10:02:29.496Z,25.15
2022-07-26T10:05:35.363Z,25.17
2022-07-26T10:08:09.860Z,25.33
2022-07-26T10:14:41.616Z,25.41
2022-07-26T10:18:16.870Z,25.46
2022-07-26T10:21:38.054Z,25.43
2022-07-26T10:24:10.670Z,25.37
2022-07-26T10:26:46.916Z,25.28
2022-07-26T10:29:38.669Z,25.48
2022-07-26T10:32:41.704Z,25.48
2022-07-26T10:35:54.658Z,25.28
2022-07-26T10:38:32.340Z,25.15
2022-07-26T10:41:06.685Z,25.31
2022-07-26T10:47:00.637Z,25.70
2022-07-26T10:49:43.058Z,25.91
2022-07-26T11:01:45.679Z,26.31
2022-07-26T11:04:41.458Z,26.28
2022-07-26T11:07:29.162Z,26.38
2022-07-26T11:10:12.351Z,26.49
2022-07-26T11:12:56.402Z,26.75
2022-07-26T11:22:43.184Z,26.72
2022-07-26T11:26:13.024Z,26.15
2022-07-26T11:35:02.692Z,26.30
2022-07-26T11:37:41.259Z,26.27
2022-07-26T11:40:29.464Z,26.10
2022-07-26T11:42:58.003Z,25.98
2022-07-26T11:45:36.496Z,25.85
2022-07-26T12:37:14.196Z,26.76
2022-07-26T12:40:15.040Z,26.54
2022-07-26T12:43:49.215Z,26.28
2022-07-26T12:47:07.651Z,26.38
2022-07-26T12:54:02.812Z,26.59
2022-07-26T12:56:56.722Z,26.79
2022-07-26T13:07:20.625Z,27.30
2022-07-26T13:10:33.970Z,27.38
2022-07-26T13:31:45.331Z,28.00
2022-07-26T13:41:37.588Z,27.73
2022-07-26T13:44:28.876Z,27.70
2022-07-26T13:59:43.855Z,27.87
2022-07-26T14:13:34.645Z,27.74
2022-07-26T14:28:03.932Z,28.31
2022-07-26T14:34:56.404Z,27.79
2022-07-26T14:38:23.332Z,27.77
2022-07-26T14:48:02.732Z,28.18
2022-07-26T14:58:25.703Z,27.98
2022-07-26T15:01:45.633Z,27.74
2022-07-26T15:11:37.729Z,28.22
2022-07-26T15:15:35.163Z,28.50
2022-07-26T15:22:44.717Z,28.56
2022-07-26T15:25:39.442Z,28.54
2022-07-26T15:39:18.701Z,28.97
2022-07-26T15:46:26.004Z,30.33
2022-07-26T15:49:50.513Z,31.03
2022-07-26T15:53:25.385Z,31.04
2022-07-26T15:56:30.236Z,30.74
2022-07-26T16:02:21.370Z,30.53
2022-07-26T16:08:21.906Z,30.88
2022-07-26T16:11:01.304Z,31.10
2022-07-26T16:13:34.272Z,31.52
2022-07-26T16:16:21.434Z,31.70
2022-07-26T16:19:55.552Z,32.08
2022-07-26T16:23:22.832Z,32.30
2022-07-26T16:26:15.880Z,31.89
2022-07-26T16:36:56.015Z,31.13
2022-07-26T16:47:20.124Z,30.14
2022-07-26T16:50:07.412Z,29.90
2022-07-26T16:57:16.996Z,29.84
2022-07-26T17:00:43.445Z,29.65
2022-07-26T17:03:22.070Z,29.20
2022-07-26T17:09:37.868Z,29.31
2022-07-26T17:16:09.133Z,29.17
2022-07-26T17:22:36.201Z,29.01
2022-07-26T17:32:29.104Z,28.67
2022-07-26T17:35:10.670Z,28.66
2022-07-26T17:38:15.516Z,28.46
2022-07-26T17:41:32.490Z,28.38
2022-07-26T17:44:10.898Z,28.38
2022-07-26T17:47:28.779Z,28.44
2022-07-26T17:57:16.035Z,28.18
2022-07-26T18:00:06.737Z,27.90
2022-07-26T18:02:56.103Z,27.48
2022-07-26T18:06:20.525Z,27.23
2022-07-26T18:13:11.563Z,26.90
2022-07-26T18:27:47.286Z,26.81
2022-07-26T18:30:20.234Z,26.78
2022-07-26T18:33:40.012Z,26.76
2022-07-26T18:37:03.264Z,26.52
2022-07-26T18:40:05.156Z,26.12
2022-07-26T18:43:01.131Z,25.99
2022-07-26T18:45:39.156Z,25.69
2022-07-26T18:48:24.128Z,25.37
2022-07-26T18:54:30.483Z,24.78
2022-07-26T18:57:08.104Z,24.52
2022-07-26T19:06:09.283Z,23.89
2022-07-26T19:08:50.202Z,23.77
2022-07-26T19:11:44.202Z,23.68
2022-07-26T19:14:38.662Z,23.56
2022-07-26T19:24:17.675Z,23.20
2022-07-26T19:27:47.511Z,23.05
2022-07-26T19:33:29.406Z,22.91
2022-07-26T19:36:33.310Z,22.80
2022-07-26T19:39:06.714Z,22.68
2022-07-26T19:41:57.754Z,22.61
2022-07-26T19:48:10.069Z,22.47
2022-07-26T19:54:34.050Z,22.34
2022-07-26T19:57:35.502Z,22.31
2022-07-26T20:04:07.646Z,22.00
2022-07-26T20:07:15.267Z,21.92
2022-07-26T20:10:36.344Z,21.85
2022-07-26T20:13:26.280Z,21.79
2022-07-26T20:27:25.773Z,21.47
2022-07-26T20:36:44.710Z,21.37
2022-07-26T20:39:15.252Z,21.32
2022-07-26T20:42:03.086Z,21.28
2022-07-26T20:56:02.476Z,21.00
2022-07-26T21:05:22.940Z,20.86
2022-07-26T21:11:32.593Z,20.67
2022-07-26T21:17:53.216Z,20.55
2022-07-26T21:20:25.602Z,20.44
2022-07-26T21:23:22.065Z,20.40
2022-07-26T21:25:58.053Z,20.34
2022-07-26T21:28:56.099Z,20.31
2022-07-26T21:31:44.405Z,20.28
2022-07-26T21:38:19.798Z,20.14
2022-07-26T21:41:35.264Z,20.11
2022-07-26T21:47:07.744Z,20.00
2022-07-26T21:50:11.736Z,20.01
2022-07-26T21:53:19.141Z,20.00
2022-07-26T21:55:55.076Z,19.94
2022-07-26T21:58:42.031Z,19.84
2022-07-26T22:01:48.396Z,20.01
2022-07-26T22:04:19.056Z,19.96
2022-07-26T22:06:48.525Z,19.97
2022-07-26T22:13:01.934Z,19.93
2022-07-26T22:22:21.438Z,19.74
2022-07-26T22:31:26.017Z,19.66
2022-07-26T22:34:12.384Z,19.65
2022-07-26T22:36:57.892Z,19.60
2022-07-26T22:39:31.511Z,19.54
2022-07-26T22:45:11.733Z,19.38
2022-07-26T22:48:07.813Z,19.35
2022-07-26T22:51:05.048Z,19.33
2022-07-26T22:54:01.136Z,19.24
2022-07-26T22:59:42.726Z,19.16
2022-07-26T23:02:38.575Z,19.17
2022-07-26T23:05:45.372Z,19.10
2022-07-26T23:08:45.862Z,19.07
2022-07-26T23:11:21.605Z,19.05
2022-07-26T23:17:46.607Z,19.00
2022-07-26T23:20:26.068Z,18.94
2022-07-26T23:26:05.513Z,18.94
2022-07-26T23:29:17.665Z,18.99
2022-07-26T23:31:56.989Z,18.82
2022-07-26T23:34:28.213Z,18.74
2022-07-26T23:36:59.796Z,18.78
2022-07-26T23:39:42.310Z,18.75
2022-07-26T23:42:25.383Z,18.69
2022-07-26T23:45:20.265Z,18.62
2022-07-26T23:47:55.217Z,18.66
2022-07-26T23:50:29.583Z,18.64
2022-07-26T23:53:01.267Z,18.63
2022-07-26T23:55:35.586Z,18.64
2022-07-26T23:58:17.243Z,18.58
